createdAt,value
2016-12-03T00:00:32.695Z,26.32
2016-12-03T00:01:33.116Z,26.36
2016-12-03T00:02:32.764Z,26.35
2016-12-03T00:03:32.720Z,26.32
2016-12-03T00:04:32.411Z,26.33
2016-12-03T00:05:33.092Z,26.37
2016-12-03T00:06:33.098Z,26.3
2016-12-03T00:07:33.370Z,26.36
2016-12-03T00:08:32.752Z,26.3
2016-12-03T00:09:32.812Z,26.36
2016-12-03T00:10:34.504Z,26.35
2016-12-03T00:11:33.135Z,26.3
2016-12-03T00:12:32.520Z,26.37
2016-12-03T00:13:33.096Z,26.33
2016-12-03T00:14:32.527Z,26.37
2016-12-03T00:15:32.495Z,26.4
2016-12-03T00:16:32.598Z,26.37
2016-12-03T00:17:33.127Z,26.39
2016-12-03T00:18:32.922Z,26.4
2016-12-03T00:19:33.192Z,26.36
2016-12-03T00:20:32.619Z,26.4
2016-12-03T00:21:34.827Z,26.43
2016-12-03T00:22:33.164Z,26.37
2016-12-03T00:23:33.174Z,26.37
2016-12-03T00:24:32.863Z,26.36
2016-12-03T00:25:32.867Z,26.36
2016-12-03T00:26:32.933Z,26.36
2016-12-03T00:27:32.882Z,26.4
2016-12-03T00:28:32.633Z,26.45
2016-12-03T00:29:33.311Z,26.4
2016-12-03T00:30:33.207Z,26.43
2016-12-03T00:31:32.966Z,26.4
2016-12-03T00:32:35.003Z,26.43
2016-12-03T00:33:33.240Z,26.48
2016-12-03T00:34:32.985Z,26.39
2016-12-03T00:35:32.995Z,26.39
2016-12-03T00:36:32.998Z,26.44
2016-12-03T00:37:33.004Z,26.4
2016-12-03T00:38:33.324Z,26.45
2016-12-03T00:39:33.333Z,26.45
2016-12-03T00:40:33.345Z,26.43
2016-12-03T00:41:33.338Z,26.45
2016-12-03T00:42:32.675Z,26.37
2016-12-03T00:43:33.306Z,26.35
2016-12-03T00:44:33.051Z,26.4
2016-12-03T00:45:33.010Z,26.35
2016-12-03T00:46:33.070Z,26.4
2016-12-03T00:47:33.024Z,26.37
2016-12-03T00:48:33.347Z,26.43
2016-12-03T00:49:33.136Z,26.44
2016-12-03T00:50:33.046Z,26.37
2016-12-03T00:51:33.106Z,26.44
2016-12-03T00:52:33.419Z,26.4
2016-12-03T00:53:33.063Z,26.45
2016-12-03T00:54:33.120Z,26.51
2016-12-03T00:55:33.077Z,26.43
2016-12-03T00:56:32.822Z,26.39
2016-12-03T00:57:33.143Z,26.47
2016-12-03T00:58:33.152Z,26.47
2016-12-03T00:59:32.798Z,26.37
2016-12-03T01:00:32.800Z,26.37
2016-12-03T01:01:33.120Z,26.44
2016-12-03T01:02:33.128Z,26.47
2016-12-03T01:03:33.847Z,26.52
2016-12-03T01:04:32.928Z,26.48
2016-12-03T01:05:33.463Z,26.39
2016-12-03T01:06:33.203Z,26.45
2016-12-03T01:07:33.165Z,26.51
2016-12-03T01:08:33.220Z,26.51
2016-12-03T01:09:33.491Z,26.48
2016-12-03T01:10:33.182Z,26.47
2016-12-03T01:11:32.931Z,26.45
2016-12-03T01:12:33.297Z,26.51
2016-12-03T01:13:33.822Z,26.44
2016-12-03T01:14:33.922Z,26.48
2016-12-03T01:15:32.906Z,26.58
2016-12-03T01:16:33.225Z,26.51
2016-12-03T01:17:33.595Z,26.51
2016-12-03T01:18:32.927Z,26.51
2016-12-03T01:19:33.565Z,26.48
2016-12-03T01:20:33.255Z,26.54
2016-12-03T01:21:33.317Z,26.52
2016-12-03T01:22:32.955Z,26.47
2016-12-03T01:23:33.582Z,26.52
2016-12-03T01:24:33.281Z,26.55
2016-12-03T01:25:34.258Z,26.48
2016-12-03T01:26:33.295Z,26.5
2016-12-03T01:27:33.298Z,26.58
2016-12-03T01:28:33.409Z,26.54
2016-12-03T01:29:33.316Z,26.5
2016-12-03T01:30:33.686Z,26.54
2016-12-03T01:31:33.020Z,26.55
2016-12-03T01:32:33.649Z,26.57
2016-12-03T01:33:33.342Z,26.52
2016-12-03T01:34:33.355Z,26.51
2016-12-03T01:35:33.672Z,26.55
2016-12-03T01:36:34.447Z,26.52
2016-12-03T01:37:33.736Z,26.52
2016-12-03T01:38:33.376Z,26.63
2016-12-03T01:39:33.417Z,26.52
2016-12-03T01:40:33.706Z,26.57
2016-12-03T01:41:33.409Z,26.57
2016-12-03T01:42:33.719Z,26.51
2016-12-03T01:43:33.414Z,26.51
2016-12-03T01:44:33.205Z,26.54
2016-12-03T01:45:33.478Z,26.52
2016-12-03T01:46:33.771Z,26.54
2016-12-03T01:47:33.131Z,26.52
2016-12-03T01:48:33.453Z,26.47
2016-12-03T01:49:34.621Z,26.51
2016-12-03T01:50:33.826Z,26.51
2016-12-03T01:51:33.210Z,26.5
2016-12-03T01:52:33.839Z,26.48
2016-12-03T01:53:33.796Z,26.57
2016-12-03T01:54:33.181Z,26.57
2016-12-03T01:55:34.104Z,26.51
2016-12-03T01:56:33.194Z,26.62
2016-12-03T01:57:33.873Z,26.54
2016-12-03T01:58:33.571Z,26.47
2016-12-03T01:59:33.527Z,26.51
2016-12-03T02:00:33.582Z,26.52
2016-12-03T02:01:33.590Z,26.66
2016-12-03T02:02:33.548Z,26.67
2016-12-03T02:03:33.239Z,26.6
2016-12-03T02:04:33.567Z,26.66
2016-12-03T02:05:33.883Z,26.58
2016-12-03T02:06:33.624Z,26.55
2016-12-03T02:07:33.633Z,26.55
2016-12-03T02:08:33.691Z,26.52
2016-12-03T02:09:33.728Z,26.52
2016-12-03T02:10:33.602Z,26.5
2016-12-03T02:11:33.713Z,26.51
2016-12-03T02:12:33.718Z,26.51
2016-12-03T02:13:33.627Z,26.51
2016-12-03T02:14:33.630Z,26.47
2016-12-03T02:15:34.003Z,26.65
2016-12-03T02:16:33.695Z,26.52
2016-12-03T02:17:33.441Z,26.52
2016-12-03T02:18:33.712Z,26.55
2016-12-03T02:19:33.667Z,26.57
2016-12-03T02:20:33.926Z,26.5
2016-12-03T02:21:33.682Z,26.52
2016-12-03T02:22:34.156Z,26.52
2016-12-03T02:23:33.410Z,26.48
2016-12-03T02:24:33.391Z,26.5
2016-12-03T02:25:33.711Z,26.52
2016-12-03T02:26:34.063Z,26.51
2016-12-03T02:27:33.461Z,26.5
2016-12-03T02:28:33.782Z,26.51
2016-12-03T02:29:33.741Z,26.48
2016-12-03T02:30:33.435Z,26.67
2016-12-03T02:31:34.226Z,26.66
2016-12-03T02:32:33.444Z,26.65
2016-12-03T02:33:33.818Z,26.57
2016-12-03T02:34:33.821Z,26.63
2016-12-03T02:35:33.830Z,26.67
2016-12-03T02:36:33.786Z,26.55
2016-12-03T02:37:33.791Z,26.54
2016-12-03T02:38:34.161Z,26.6
2016-12-03T02:39:33.859Z,26.63
2016-12-03T02:40:34.174Z,26.57
2016-12-03T02:41:34.435Z,26.67
2016-12-03T02:42:34.600Z,26.63
2016-12-03T02:43:33.834Z,26.6
2016-12-03T02:44:33.941Z,26.57
2016-12-03T02:45:34.212Z,26.66
2016-12-03T02:46:33.860Z,26.7
2016-12-03T02:47:33.916Z,26.67
2016-12-03T02:48:34.017Z,26.6
2016-12-03T02:49:34.189Z,26.62
2016-12-03T02:50:33.986Z,26.6
2016-12-03T02:51:33.946Z,26.65
2016-12-03T02:52:33.896Z,26.55
2016-12-03T02:53:34.970Z,26.67
2016-12-03T02:54:33.913Z,26.66
2016-12-03T02:55:34.386Z,26.7
2016-12-03T02:56:33.611Z,26.65
2016-12-03T02:57:34.298Z,26.55
2016-12-03T02:58:34.307Z,26.55
2016-12-03T02:59:34.309Z,26.51
2016-12-03T03:00:33.952Z,26.62
2016-12-03T03:01:33.647Z,26.66
2016-12-03T03:02:33.967Z,26.62
2016-12-03T03:03:34.337Z,26.65
2016-12-03T03:04:35.417Z,26.6
2016-12-03T03:05:33.728Z,26.66
2016-12-03T03:06:34.883Z,26.54
2016-12-03T03:07:34.053Z,26.66
2016-12-03T03:08:34.008Z,26.63
2016-12-03T03:09:34.014Z,26.69
2016-12-03T03:10:34.025Z,26.75
2016-12-03T03:11:33.716Z,26.73
2016-12-03T03:12:34.336Z,26.67
2016-12-03T03:13:34.093Z,26.65
2016-12-03T03:14:33.739Z,26.63
2016-12-03T03:15:34.159Z,26.63
2016-12-03T03:16:34.064Z,26.69
2016-12-03T03:17:35.172Z,26.58
2016-12-03T03:18:34.392Z,26.65
2016-12-03T03:19:34.497Z,26.67
2016-12-03T03:20:33.777Z,26.7
2016-12-03T03:21:33.893Z,26.7
2016-12-03T03:22:34.109Z,26.7
2016-12-03T03:23:34.115Z,26.67
2016-12-03T03:24:34.541Z,26.69
2016-12-03T03:25:33.816Z,26.7
2016-12-03T03:26:35.731Z,26.72
2016-12-03T03:27:33.882Z,26.7
2016-12-03T03:28:35.712Z,26.69
2016-12-03T03:29:34.478Z,26.72
2016-12-03T03:30:34.161Z,26.67
2016-12-03T03:31:34.482Z,26.69
2016-12-03T03:32:33.967Z,26.66
2016-12-03T03:33:34.185Z,26.7
2016-12-03T03:34:33.877Z,26.73
2016-12-03T03:35:34.204Z,26.69
2016-12-03T03:36:34.252Z,26.65
2016-12-03T03:37:34.564Z,26.67
2016-12-03T03:38:34.270Z,26.63
2016-12-03T03:39:33.916Z,26.73
2016-12-03T03:40:34.603Z,26.65
2016-12-03T03:41:34.244Z,26.7
2016-12-03T03:42:34.298Z,26.7
2016-12-03T03:43:34.566Z,26.66
2016-12-03T03:44:34.575Z,26.69
2016-12-03T03:45:34.270Z,26.67
2016-12-03T03:46:34.588Z,26.7
2016-12-03T03:47:34.693Z,26.63
2016-12-03T03:48:35.033Z,26.63
2016-12-03T03:49:34.607Z,26.66
2016-12-03T03:50:34.303Z,26.69
2016-12-03T03:51:34.361Z,26.72
2016-12-03T03:52:34.366Z,26.67
2016-12-03T03:53:34.108Z,26.75
2016-12-03T03:54:34.383Z,26.67
2016-12-03T03:55:34.031Z,26.62
2016-12-03T03:56:34.391Z,26.6
2016-12-03T03:57:34.339Z,26.67
2016-12-03T03:58:34.671Z,26.66
2016-12-03T03:59:35.166Z,26.67
2016-12-03T04:00:34.686Z,26.62
2016-12-03T04:01:34.690Z,26.69
2016-12-03T04:02:34.699Z,26.66
2016-12-03T04:03:34.753Z,26.7
2016-12-03T04:04:34.452Z,26.73
2016-12-03T04:05:34.395Z,26.72
2016-12-03T04:06:34.461Z,26.67
2016-12-03T04:07:34.467Z,26.66
2016-12-03T04:08:34.738Z,26.6
2016-12-03T04:09:34.431Z,26.67
2016-12-03T04:10:36.441Z,26.73
2016-12-03T04:11:34.445Z,26.65
2016-12-03T04:12:34.815Z,26.67
2016-12-03T04:13:34.469Z,26.69
2016-12-03T04:14:34.833Z,26.63
2016-12-03T04:15:34.521Z,26.72
2016-12-03T04:16:34.880Z,26.69
2016-12-03T04:17:34.854Z,26.67
2016-12-03T04:18:34.500Z,26.69
2016-12-03T04:19:34.190Z,26.66
2016-12-03T04:20:34.921Z,26.69
2016-12-03T04:21:35.822Z,26.69
2016-12-03T04:22:34.888Z,26.6
2016-12-03T04:23:35.242Z,26.67
2016-12-03T04:24:34.222Z,26.63
2016-12-03T04:25:34.958Z,26.66
2016-12-03T04:26:34.598Z,26.65
2016-12-03T04:27:34.293Z,26.58
2016-12-03T04:28:34.565Z,26.65
2016-12-03T04:29:34.889Z,26.67
2016-12-03T04:30:34.897Z,26.66
2016-12-03T04:31:34.325Z,26.6
2016-12-03T04:32:36.316Z,26.7
2016-12-03T04:33:34.960Z,26.66
2016-12-03T04:34:35.155Z,26.69
2016-12-03T04:35:35.057Z,26.66
2016-12-03T04:36:34.931Z,26.72
2016-12-03T04:37:34.679Z,26.67
2016-12-03T04:38:35.073Z,26.67
2016-12-03T04:39:34.959Z,26.63
2016-12-03T04:40:35.009Z,26.66
2016-12-03T04:41:34.391Z,26.66
2016-12-03T04:42:34.978Z,26.66
2016-12-03T04:43:34.667Z,26.67
2016-12-03T04:44:35.041Z,26.67
2016-12-03T04:45:35.370Z,26.65
2016-12-03T04:46:35.001Z,26.76
2016-12-03T04:47:34.749Z,26.65
2016-12-03T04:48:34.754Z,26.76
2016-12-03T04:49:34.761Z,26.73
2016-12-03T04:50:34.767Z,26.67
2016-12-03T04:51:34.722Z,26.63
2016-12-03T04:52:34.781Z,26.65
2016-12-03T04:53:34.788Z,26.67
2016-12-03T04:54:34.796Z,26.75
2016-12-03T04:55:34.753Z,26.67
2016-12-03T04:56:34.451Z,26.67
2016-12-03T04:57:34.765Z,26.7
2016-12-03T04:58:35.085Z,26.7
2016-12-03T04:59:35.446Z,26.65
2016-12-03T05:00:34.526Z,26.75
2016-12-03T05:01:35.156Z,26.7
2016-12-03T05:02:35.112Z,26.75
2016-12-03T05:03:35.309Z,26.73
2016-12-03T05:04:34.818Z,26.8
2016-12-03T05:05:34.823Z,26.81
2016-12-03T05:06:34.833Z,26.73
2016-12-03T05:07:34.842Z,26.75
2016-12-03T05:08:35.218Z,26.77
2016-12-03T05:09:35.217Z,26.75
2016-12-03T05:10:35.222Z,26.76
2016-12-03T05:11:35.175Z,26.76
2016-12-03T05:12:34.871Z,26.77
2016-12-03T05:13:35.193Z,26.82
2016-12-03T05:14:35.688Z,26.76
2016-12-03T05:15:34.994Z,26.7
2016-12-03T05:16:35.240Z,26.77
2016-12-03T05:17:35.318Z,26.77
2016-12-03T05:18:35.276Z,26.81
2016-12-03T05:19:35.024Z,26.76
2016-12-03T05:20:34.937Z,26.8
2016-12-03T05:21:35.296Z,26.84
2016-12-03T05:22:34.942Z,26.73
2016-12-03T05:23:34.949Z,26.77
2016-12-03T05:24:35.008Z,26.72
2016-12-03T05:25:35.803Z,26.75
2016-12-03T05:26:34.805Z,26.84
2016-12-03T05:27:35.480Z,26.77
2016-12-03T05:28:34.673Z,26.75
2016-12-03T05:29:35.303Z,26.8
2016-12-03T05:30:34.998Z,26.81
2016-12-03T05:31:34.743Z,26.77
2016-12-03T05:32:35.064Z,26.8
2016-12-03T05:33:35.019Z,26.73
2016-12-03T05:34:35.344Z,26.84
2016-12-03T05:35:35.083Z,26.84
2016-12-03T05:36:35.399Z,26.76
2016-12-03T05:37:35.097Z,26.75
2016-12-03T05:38:36.215Z,26.75
2016-12-03T05:39:35.115Z,26.72
2016-12-03T05:40:35.723Z,26.63
2016-12-03T05:41:35.438Z,26.75
2016-12-03T05:42:35.133Z,26.77
2016-12-03T05:43:35.138Z,26.76
2016-12-03T05:44:34.834Z,26.73
2016-12-03T05:45:34.845Z,26.72
2016-12-03T05:46:35.424Z,26.76
2016-12-03T05:47:35.114Z,26.77
2016-12-03T05:48:35.488Z,26.75
2016-12-03T05:49:36.607Z,26.69
2016-12-03T05:50:35.186Z,26.7
2016-12-03T05:51:36.146Z,26.67
2016-12-03T05:52:35.464Z,26.73
2016-12-03T05:53:35.222Z,26.8
2016-12-03T05:54:35.153Z,26.7
2016-12-03T05:55:34.910Z,26.72
2016-12-03T05:56:35.231Z,26.72
2016-12-03T05:57:34.877Z,26.76
2016-12-03T05:58:35.031Z,26.65
2016-12-03T05:59:35.519Z,26.63
2016-12-03T06:00:36.539Z,26.73
2016-12-03T06:01:35.214Z,26.69
2016-12-03T06:02:36.324Z,26.73
2016-12-03T06:03:35.229Z,26.81
2016-12-03T06:04:35.287Z,26.84
2016-12-03T06:05:35.609Z,26.73
2016-12-03T06:06:35.254Z,26.75
2016-12-03T06:07:35.573Z,26.73
2016-12-03T06:08:34.952Z,26.77
2016-12-03T06:09:35.633Z,26.8
2016-12-03T06:10:35.334Z,26.73
2016-12-03T06:11:35.333Z,26.84
2016-12-03T06:12:35.390Z,26.8
2016-12-03T06:13:35.351Z,26.87
2016-12-03T06:14:35.310Z,26.88
2016-12-03T06:15:35.627Z,26.87
2016-12-03T06:16:35.633Z,26.82
2016-12-03T06:17:35.691Z,26.87
2016-12-03T06:18:35.363Z,26.89
2016-12-03T06:19:35.395Z,26.85
2016-12-03T06:20:35.435Z,26.82
2016-12-03T06:21:35.408Z,26.84
2016-12-03T06:22:35.364Z,26.84
2016-12-03T06:23:35.418Z,26.87
2016-12-03T06:24:35.065Z,26.89
2016-12-03T06:25:35.700Z,26.82
2016-12-03T06:26:35.740Z,26.85
2016-12-03T06:27:35.709Z,26.87
2016-12-03T06:28:35.705Z,26.85
2016-12-03T06:29:35.410Z,26.91
2016-12-03T06:30:35.468Z,26.89
2016-12-03T06:31:36.439Z,26.88
2016-12-03T06:32:35.439Z,26.99
2016-12-03T06:34:35.759Z,26.87
2016-12-03T06:35:35.193Z,26.84
2016-12-03T06:36:35.823Z,26.91
2016-12-03T06:37:35.465Z,26.88
2016-12-03T06:38:35.473Z,26.88
2016-12-03T06:39:35.533Z,26.92
2016-12-03T06:40:35.177Z,26.91
2016-12-03T06:41:35.895Z,26.88
2016-12-03T06:42:36.769Z,26.88
2016-12-03T06:43:35.830Z,26.85
2016-12-03T06:44:36.080Z,26.89
2016-12-03T06:45:35.837Z,26.94
2016-12-03T06:46:35.584Z,26.89
2016-12-03T06:47:35.848Z,26.91
2016-12-03T06:48:35.549Z,26.94
2016-12-03T06:49:35.862Z,26.92
2016-12-03T06:50:35.612Z,27
2016-12-03T06:51:35.357Z,26.94
2016-12-03T06:52:35.888Z,26.89
2016-12-03T06:53:35.582Z,26.88
2016-12-03T06:54:35.640Z,26.95
2016-12-03T06:55:36.782Z,26.91
2016-12-03T06:56:35.659Z,26.92
2016-12-03T06:57:35.975Z,26.89
2016-12-03T06:58:35.621Z,26.89
2016-12-03T06:59:35.988Z,26.95
2016-12-03T07:00:35.944Z,26.97
2016-12-03T07:01:36.055Z,26.95
2016-12-03T07:02:35.385Z,26.97
2016-12-03T07:03:35.654Z,26.97
2016-12-03T07:04:35.661Z,26.95
2016-12-03T07:05:35.353Z,26.97
2016-12-03T07:06:37.177Z,26.92
2016-12-03T07:07:35.787Z,26.84
2016-12-03T07:08:36.051Z,26.88
2016-12-03T07:09:35.750Z,26.92
2016-12-03T07:10:35.701Z,26.95
2016-12-03T07:11:35.711Z,27.02
2016-12-03T07:12:35.719Z,27
2016-12-03T07:13:35.410Z,26.94
2016-12-03T07:14:36.093Z,26.88
2016-12-03T07:15:36.052Z,27
2016-12-03T07:16:36.109Z,27.02
2016-12-03T07:17:37.721Z,26.95
2016-12-03T07:18:35.760Z,27
2016-12-03T07:19:35.768Z,26.97
2016-12-03T07:20:36.085Z,26.97
2016-12-03T07:21:35.568Z,26.97
2016-12-03T07:22:35.474Z,26.92
2016-12-03T07:23:35.489Z,26.94
2016-12-03T07:24:36.113Z,26.89
2016-12-03T07:25:36.196Z,26.89
2016-12-03T07:26:36.366Z,26.91
2016-12-03T07:27:36.187Z,26.92
2016-12-03T07:28:35.830Z,27.04
2016-12-03T07:29:35.836Z,27.13
2016-12-03T07:30:35.898Z,27.25
2016-12-03T07:31:36.216Z,27.49
2016-12-03T07:32:36.174Z,27.72
2016-12-03T07:33:36.178Z,27.87
2016-12-03T07:34:35.613Z,28.07
2016-12-03T07:35:35.569Z,28.31
2016-12-03T07:36:36.203Z,28.49
2016-12-03T07:37:36.736Z,28.66
2016-12-03T07:38:36.213Z,28.88
2016-12-03T07:39:35.597Z,29.09
2016-12-03T07:40:36.282Z,29.24
2016-12-03T07:41:36.227Z,29.34
2016-12-03T07:42:36.243Z,29.48
2016-12-03T07:43:36.065Z,29.53
2016-12-03T07:44:35.999Z,29.7
2016-12-03T07:45:36.056Z,29.82
2016-12-03T07:46:36.271Z,29.86
2016-12-03T07:47:35.652Z,29.95
2016-12-03T07:48:36.963Z,29.98
2016-12-03T07:49:36.082Z,30.04
2016-12-03T07:50:36.287Z,30.04
2016-12-03T07:51:36.050Z,30
2016-12-03T07:52:36.318Z,29.98
2016-12-03T07:53:36.015Z,30
2016-12-03T07:54:36.328Z,30.02
2016-12-03T07:55:36.441Z,29.86
2016-12-03T07:56:36.447Z,29.86
2016-12-03T07:57:36.042Z,29.82
2016-12-03T07:58:36.363Z,29.73
2016-12-03T07:59:35.794Z,29.7
2016-12-03T08:00:36.063Z,29.7
2016-12-03T08:01:36.976Z,29.68
2016-12-03T08:02:36.076Z,29.6
2016-12-03T08:03:36.503Z,29.51
2016-12-03T08:04:36.406Z,29.33
2016-12-03T08:05:36.413Z,29.26
2016-12-03T08:06:36.110Z,29.23
2016-12-03T08:07:36.121Z,29.15
2016-12-03T08:08:36.172Z,29.14
2016-12-03T08:09:36.133Z,29.02
2016-12-03T08:10:36.142Z,28.96
2016-12-03T08:11:36.257Z,28.86
2016-12-03T08:12:37.325Z,28.81
2016-12-03T08:13:36.161Z,28.76
2016-12-03T08:14:36.221Z,28.74
2016-12-03T08:15:35.914Z,28.68
2016-12-03T08:16:36.190Z,28.7
2016-12-03T08:17:35.882Z,28.44
2016-12-03T08:18:35.993Z,28.54
2016-12-03T08:19:36.262Z,28.49
2016-12-03T08:20:36.219Z,28.34
2016-12-03T08:21:36.637Z,28.3
2016-12-03T08:22:36.544Z,28.21
2016-12-03T08:23:35.927Z,28.18
2016-12-03T08:24:36.246Z,28.15
2016-12-03T08:25:36.311Z,28.02
2016-12-03T08:26:36.573Z,27.96
2016-12-03T08:27:36.316Z,28.02
2016-12-03T08:28:36.324Z,27.96
2016-12-03T08:29:36.335Z,28
2016-12-03T08:30:36.602Z,27.96
2016-12-03T08:31:36.344Z,27.79
2016-12-03T08:32:36.708Z,27.92
2016-12-03T08:33:36.364Z,27.88
2016-12-03T08:34:36.358Z,27.81
2016-12-03T08:35:36.645Z,27.69
2016-12-03T08:36:36.076Z,27.66
2016-12-03T08:37:36.445Z,27.74
2016-12-03T08:38:36.670Z,27.59
2016-12-03T08:39:36.720Z,27.6
2016-12-03T08:40:36.372Z,27.57
2016-12-03T08:41:36.116Z,27.47
2016-12-03T08:42:36.434Z,27.4
2016-12-03T08:43:37.655Z,27.32
2016-12-03T08:44:36.401Z,27.39
2016-12-03T08:45:36.873Z,27.4
2016-12-03T08:46:36.415Z,27.4
2016-12-03T08:47:36.785Z,27.27
2016-12-03T08:48:36.433Z,27.24
2016-12-03T08:49:36.175Z,27.28
2016-12-03T08:50:36.135Z,27.24
2016-12-03T08:51:36.204Z,27.25
2016-12-03T08:52:36.147Z,27.28
2016-12-03T08:53:36.937Z,27.32
2016-12-03T08:54:36.531Z,27.24
2016-12-03T08:55:36.487Z,27.25
2016-12-03T08:56:37.554Z,27.4
2016-12-03T08:57:36.193Z,27.4
2016-12-03T08:58:36.510Z,27.4
2016-12-03T08:59:36.565Z,27.41
2016-12-03T09:00:36.575Z,27.39
2016-12-03T09:01:36.273Z,27.37
2016-12-03T09:02:36.849Z,27.41
2016-12-03T09:03:36.596Z,27.41
2016-12-03T09:04:36.240Z,27.47
2016-12-03T09:05:36.614Z,27.47
2016-12-03T09:06:36.936Z,27.47
2016-12-03T09:07:37.968Z,27.44
2016-12-03T09:08:36.585Z,27.51
2016-12-03T09:09:36.909Z,27.5
2016-12-03T09:10:36.292Z,27.36
2016-12-03T09:11:36.618Z,27.51
2016-12-03T09:12:36.930Z,27.47
2016-12-03T09:13:36.627Z,27.47
2016-12-03T09:14:36.633Z,27.41
2016-12-03T09:15:36.642Z,27.36
2016-12-03T09:16:36.964Z,27.44
2016-12-03T09:17:36.706Z,27.41
2016-12-03T09:18:36.982Z,27.25
2016-12-03T09:19:36.361Z,27.22
2016-12-03T09:20:36.683Z,27.31
2016-12-03T09:21:37.047Z,27.22
2016-12-03T09:22:36.385Z,27.09
2016-12-03T09:23:37.019Z,27.12
2016-12-03T09:24:36.406Z,27.09
2016-12-03T09:25:36.771Z,27.18
2016-12-03T09:26:36.776Z,27.21
2016-12-03T09:27:37.376Z,27.17
2016-12-03T09:28:37.366Z,27.18
2016-12-03T09:29:36.857Z,27.07
2016-12-03T09:30:36.812Z,27.09
2016-12-03T09:31:36.818Z,27.04
2016-12-03T09:32:36.776Z,26.92
2016-12-03T09:33:37.105Z,27.03
2016-12-03T09:34:36.477Z,26.97
2016-12-03T09:35:37.114Z,26.91
2016-12-03T09:36:36.493Z,27
2016-12-03T09:37:36.815Z,26.91
2016-12-03T09:38:38.322Z,26.8
2016-12-03T09:39:36.887Z,26.82
2016-12-03T09:40:37.538Z,26.8
2016-12-03T09:41:36.898Z,26.81
2016-12-03T09:42:37.165Z,26.81
2016-12-03T09:43:37.279Z,26.72
2016-12-03T09:44:36.608Z,26.73
2016-12-03T09:45:36.878Z,26.73
2016-12-03T09:46:36.625Z,26.73
2016-12-03T09:47:36.630Z,26.66
2016-12-03T09:48:37.212Z,26.65
2016-12-03T09:49:38.529Z,26.55
2016-12-03T09:50:36.702Z,26.52
2016-12-03T09:51:37.736Z,26.45
2016-12-03T09:52:36.988Z,26.37
2016-12-03T09:53:37.302Z,26.4
2016-12-03T09:54:37.321Z,26.44
2016-12-03T09:55:37.193Z,26.33
2016-12-03T09:56:37.017Z,26.39
2016-12-03T09:57:36.976Z,26.26
2016-12-03T09:58:37.345Z,26.29
2016-12-03T09:59:37.037Z,26.3
2016-12-03T10:00:36.730Z,26.28
2016-12-03T10:01:37.006Z,26.3
2016-12-03T10:02:36.697Z,26.25
2016-12-03T10:03:37.021Z,26.25
2016-12-03T10:04:37.075Z,26.33
2016-12-03T10:05:37.397Z,26.29
2016-12-03T10:06:36.777Z,26.36
2016-12-03T10:07:37.367Z,26.36
2016-12-03T10:08:36.743Z,26.37
2016-12-03T10:09:36.854Z,26.37
2016-12-03T10:10:36.762Z,26.39
2016-12-03T10:11:37.180Z,26.47
2016-12-03T10:12:37.142Z,26.55
2016-12-03T10:13:38.579Z,26.52
2016-12-03T10:14:36.889Z,26.5
2016-12-03T10:15:36.848Z,26.72
2016-12-03T10:16:37.120Z,26.67
2016-12-03T10:17:37.584Z,26.7
2016-12-03T10:18:36.828Z,26.76
2016-12-03T10:19:37.192Z,26.8
2016-12-03T10:20:37.960Z,26.95
2016-12-03T10:21:37.472Z,26.89
2016-12-03T10:22:37.004Z,27
2016-12-03T10:23:37.483Z,27.07
2016-12-03T10:24:37.229Z,27.09
2016-12-03T10:25:37.549Z,27.1
2016-12-03T10:26:37.242Z,27.12
2016-12-03T10:27:36.941Z,27.21
2016-12-03T10:28:36.944Z,27.24
2016-12-03T10:29:37.577Z,27.32
2016-12-03T10:30:37.232Z,27.39
2016-12-03T10:31:38.030Z,27.31
2016-12-03T10:32:36.976Z,27.47
2016-12-03T10:33:37.709Z,27.46
2016-12-03T10:34:37.257Z,27.47
2016-12-03T10:35:38.900Z,27.5
2016-12-03T10:36:37.317Z,27.54
2016-12-03T10:37:36.962Z,27.54
2016-12-03T10:38:37.280Z,27.66
2016-12-03T10:39:37.289Z,27.66
2016-12-03T10:40:37.299Z,27.72
2016-12-03T10:41:37.617Z,27.75
2016-12-03T10:42:38.832Z,27.66
2016-12-03T10:43:37.321Z,27.75
2016-12-03T10:44:37.828Z,27.78
2016-12-03T10:45:37.694Z,27.87
2016-12-03T10:46:37.590Z,27.9
2016-12-03T10:47:37.085Z,27.81
2016-12-03T10:48:37.405Z,27.85
2016-12-03T10:49:37.673Z,27.93
2016-12-03T10:50:37.055Z,28.03
2016-12-03T10:51:37.163Z,27.99
2016-12-03T10:52:37.096Z,27.99
2016-12-03T10:53:37.392Z,27.84
2016-12-03T10:54:37.136Z,27.94
2016-12-03T10:55:37.094Z,27.84
2016-12-03T10:56:37.097Z,27.94
2016-12-03T10:57:38.023Z,27.88
2016-12-03T10:58:37.795Z,27.9
2016-12-03T10:59:37.445Z,27.9
2016-12-03T11:00:37.812Z,27.87
2016-12-03T11:01:37.501Z,27.85
2016-12-03T11:02:37.507Z,27.9
2016-12-03T11:03:37.518Z,27.85
2016-12-03T11:04:37.365Z,27.9
2016-12-03T11:05:37.895Z,27.85
2016-12-03T11:06:37.227Z,27.79
2016-12-03T11:07:37.857Z,27.82
2016-12-03T11:08:37.557Z,27.79
2016-12-03T11:09:37.560Z,27.92
2016-12-03T11:10:37.885Z,27.87
2016-12-03T11:11:37.888Z,27.81
2016-12-03T11:12:37.536Z,27.82
2016-12-03T11:13:37.853Z,27.77
2016-12-03T11:14:37.913Z,27.7
2016-12-03T11:15:38.168Z,27.66
2016-12-03T11:16:37.568Z,27.66
2016-12-03T11:17:37.944Z,27.67
2016-12-03T11:18:37.632Z,27.66
2016-12-03T11:19:37.595Z,27.72
2016-12-03T11:20:37.646Z,27.65
2016-12-03T11:21:37.967Z,27.59
2016-12-03T11:22:37.658Z,27.51
2016-12-03T11:23:37.673Z,27.62
2016-12-03T11:24:37.314Z,27.55
2016-12-03T11:25:37.368Z,27.59
2016-12-03T11:26:38.741Z,27.55
2016-12-03T11:27:37.962Z,27.55
2016-12-03T11:28:37.993Z,27.49
2016-12-03T11:29:37.661Z,27.51
2016-12-03T11:30:37.986Z,27.47
2016-12-03T11:31:37.729Z,27.44
2016-12-03T11:32:38.002Z,27.46
2016-12-03T11:33:38.106Z,27.44
2016-12-03T11:34:37.396Z,27.4
2016-12-03T11:35:37.708Z,27.4
2016-12-03T11:36:37.765Z,27.4
2016-12-03T11:37:39.200Z,27.4
2016-12-03T11:38:37.733Z,27.37
2016-12-03T11:39:38.451Z,27.43
2016-12-03T11:40:37.531Z,27.31
2016-12-03T11:41:38.368Z,27.39
2016-12-03T11:42:38.081Z,27.4
2016-12-03T11:43:37.769Z,27.44
2016-12-03T11:44:37.877Z,27.46
2016-12-03T11:45:38.150Z,27.27
2016-12-03T11:46:38.157Z,27.28
2016-12-03T11:47:37.798Z,27.31
2016-12-03T11:48:37.813Z,27.28
2016-12-03T11:49:38.130Z,27.25
2016-12-03T11:50:39.170Z,27.27
2016-12-03T11:51:37.835Z,27.32
2016-12-03T11:52:37.888Z,27.28
2016-12-03T11:53:38.159Z,27.22
2016-12-03T11:54:37.595Z,27.25
2016-12-03T11:55:37.624Z,27.28
2016-12-03T11:56:37.921Z,27.17
2016-12-03T11:57:37.877Z,27.29
2016-12-03T11:58:37.934Z,27.21
2016-12-03T11:59:38.260Z,27.32
2016-12-03T12:00:38.901Z,27.27
2016-12-03T12:01:38.008Z,27.25
2016-12-03T12:02:37.914Z,27.21
2016-12-03T12:03:37.921Z,27.21
2016-12-03T12:04:38.245Z,27.27
2016-12-03T12:05:38.301Z,27.27
2016-12-03T12:06:37.682Z,27.14
2016-12-03T12:07:38.263Z,27.13
2016-12-03T12:08:37.966Z,27.07
2016-12-03T12:09:38.282Z,27.1
2016-12-03T12:10:38.564Z,27.17
2016-12-03T12:11:38.345Z,27.22
2016-12-03T12:12:38.301Z,27.18
2016-12-03T12:13:38.360Z,27.17
2016-12-03T12:14:38.404Z,27.17
2016-12-03T12:15:38.012Z,27.24
2016-12-03T12:16:38.074Z,27.12
2016-12-03T12:17:38.076Z,27.27
2016-12-03T12:18:38.349Z,27.21
2016-12-03T12:19:38.360Z,27.22
2016-12-03T12:20:38.050Z,27.12
2016-12-03T12:21:39.008Z,27.22
2016-12-03T12:22:38.115Z,27.22
2016-12-03T12:23:38.062Z,27.21
2016-12-03T12:24:38.492Z,27.25
2016-12-03T12:25:38.238Z,27.17
2016-12-03T12:26:38.460Z,27.12
2016-12-03T12:27:38.105Z,27.17
2016-12-03T12:28:38.112Z,27.29
2016-12-03T12:29:38.118Z,27.22
2016-12-03T12:30:38.132Z,27.34
2016-12-03T12:31:38.492Z,27.36
2016-12-03T12:32:39.705Z,27.27
2016-12-03T12:33:38.510Z,27.27
2016-12-03T12:34:38.972Z,27.31
2016-12-03T12:35:37.904Z,27.22
2016-12-03T12:36:38.488Z,27.31
2016-12-03T12:37:37.865Z,27.41
2016-12-03T12:38:38.598Z,27.41
2016-12-03T12:39:37.884Z,27.39
2016-12-03T12:40:38.263Z,27.34
2016-12-03T12:41:38.574Z,27.37
2016-12-03T12:42:38.579Z,27.31
2016-12-03T12:43:37.917Z,27.34
2016-12-03T12:44:38.592Z,27.39
2016-12-03T12:45:39.558Z,27.41
2016-12-03T12:46:38.609Z,27.4
2016-12-03T12:47:38.256Z,27.46
2016-12-03T12:48:38.314Z,27.47
2016-12-03T12:49:38.269Z,27.41
2016-12-03T12:50:38.638Z,27.4
2016-12-03T12:51:38.284Z,27.39
2016-12-03T12:52:38.293Z,27.36
2016-12-03T12:53:38.968Z,27.39
2016-12-03T12:54:38.621Z,27.39
2016-12-03T12:55:38.366Z,27.5
2016-12-03T12:56:39.351Z,27.46
2016-12-03T12:57:38.329Z,27.49